Time;durP1;ratioP1;P1;durP2;ratioP2;P2;SDS_P1;SDS_P2;PMS_P1;PMS_P2;Temp;Humidity;BMP_temperature;BMP_pressure;BME280_temperature;BME280_humidity;BME280_pressure;Samples;Min_cycle;Max_cycle;Signal;HPM_P1;HPM_P2
2022/03/05 00:01:05;;;;;;;4.25;1.63;;;;;;;;;;5053627;28;20412;-73
2022/03/05 00:03:32;;;;;;;3.00;2.20;;;;;;;;;;5052924;28;20053;-73
2022/03/05 00:05:59;;;;;;;4.47;2.30;;;;;;;;;;5054172;28;20087;-73
2022/03/05 00:08:25;;;;;;;4.97;2.03;;;;;;;;;;5053790;28;20052;-73
2022/03/05 00:10:51;;;;;;;3.38;2.10;;;;;;;;;;5053958;28;20049;-73
2022/03/05 00:13:18;;;;;;;3.70;1.80;;;;;;;;;;5053621;28;20489;-72
2022/03/05 00:15:45;;;;;;;2.63;1.60;;;;;;;;;;5053512;28;20046;-73
2022/03/05 00:18:12;;;;;;;4.50;1.80;;;;;;;;;;5048565;28;20046;-73
2022/03/05 00:20:39;;;;;;;2.38;1.67;;;;;;;;;;5043408;28;20049;-73
2022/03/05 00:23:06;;;;;;;3.88;1.80;;;;;;;;;;5053457;28;20061;-73
2022/03/05 00:25:32;;;;;;;5.22;1.63;;;;;;;;;;5053462;28;20094;-73
2022/03/05 00:27:59;;;;;;;4.25;1.65;;;;;;;;;;5053413;28;20052;-73
2022/03/05 00:30:25;;;;;;;5.38;1.75;;;;;;;;;;5053339;28;20053;-73
2022/03/05 00:32:52;;;;;;;2.90;1.63;;;;;;;;;;5052467;28;20207;-73
2022/03/05 00:35:18;;;;;;;2.72;1.80;;;;;;;;;;5053097;28;20496;-72
2022/03/05 00:37:45;;;;;;;4.63;1.70;;;;;;;;;;5053064;28;20385;-72
2022/03/05 00:40:12;;;;;;;5.05;3.25;;;;;;;;;;5053106;28;20052;-73
2022/03/05 00:42:38;;;;;;;24.45;12.68;;;;;;;;;;5053383;28;20044;-73
2022/03/05 00:45:08;;;;;;;30.15;18.10;;;;;;;;;;5053303;28;20052;-73
2022/03/05 00:47:35;;;;;;;34.92;20.52;;;;;;;;;;5052702;28;20053;-74
2022/03/05 00:50:02;;;;;;;33.03;18.33;;;;;;;;;;5053036;28;20106;-74
2022/03/05 00:52:29;;;;;;;34.97;17.17;;;;;;;;;;5051689;28;20118;-73
2022/03/05 00:54:55;;;;;;;33.33;18.17;;;;;;;;;;5052894;28;20048;-75
2022/03/05 00:57:22;;;;;;;37.60;21.48;;;;;;;;;;5052707;28;20053;-74
2022/03/05 00:59:48;;;;;;;36.40;20.67;;;;;;;;;;5052707;28;20477;-74
2022/03/05 01:02:15;;;;;;;34.45;20.95;;;;;;;;;;5052818;28;20056;-74
2022/03/05 01:04:41;;;;;;;31.15;18.60;;;;;;;;;;5052590;28;20053;-74
2022/03/05 01:07:09;;;;;;;24.00;13.43;;;;;;;;;;5052971;28;20060;-74
2022/03/05 01:09:35;;;;;;;22.60;13.30;;;;;;;;;;5051294;28;20079;-74
2022/03/05 01:12:02;;;;;;;35.17;22.80;;;;;;;;;;5051184;28;20053;-74
2022/03/05 01:14:28;;;;;;;23.55;14.82;;;;;;;;;;5052708;28;20044;-74
2022/03/05 01:16:55;;;;;;;39.67;21.95;;;;;;;;;;5052349;28;20123;-73
2022/03/05 01:19:21;;;;;;;56.75;34.42;;;;;;;;;;5050654;28;20099;-73
2022/03/05 01:21:48;;;;;;;33.30;18.92;;;;;;;;;;5052349;28;20111;-74
2022/03/05 01:24:14;;;;;;;11.75;8.18;;;;;;;;;;5052614;28;20048;-73
2022/03/05 01:26:40;;;;;;;6.13;3.90;;;;;;;;;;5052069;28;20107;-73
2022/03/05 01:29:07;;;;;;;7.50;4.88;;;;;;;;;;5052476;28;20119;-73
2022/03/05 01:31:33;;;;;;;24.70;14.63;;;;;;;;;;5052419;28;20075;-73
2022/03/05 01:34:00;;;;;;;20.15;12.10;;;;;;;;;;5052229;28;20059;-70
2022/03/05 01:36:26;;;;;;;19.35;10.63;;;;;;;;;;5052468;28;20048;-70
2022/03/05 01:38:53;;;;;;;40.25;23.50;;;;;;;;;;5050819;28;20079;-71
2022/03/05 01:41:19;;;;;;;38.65;22.10;;;;;;;;;;5052205;28;20052;-71
2022/03/05 01:43:50;;;;;;;11.13;5.90;;;;;;;;;;5050706;28;20095;-71
2022/03/05 01:46:46;;;;;;;6.18;4.28;;;;;;;;;;5052002;28;20128;-70
2022/03/05 01:49:13;;;;;;;4.93;2.58;;;;;;;;;;5049141;28;20052;-70
2022/03/05 01:51:40;;;;;;;3.20;1.90;;;;;;;;;;5023950;28;20049;-71
2022/03/05 01:54:06;;;;;;;2.95;1.80;;;;;;;;;;5045653;28;20435;-70
2022/03/05 01:56:33;;;;;;;8.20;3.47;;;;;;;;;;5051535;28;20091;-70
2022/03/05 01:59:00;;;;;;;14.73;8.40;;;;;;;;;;5051122;28;20102;-70
2022/03/05 02:01:28;;;;;;;13.35;8.52;;;;;;;;;;5052000;28;20044;-70
2022/03/05 02:03:55;;;;;;;;;;;;;;;;;;5052216;28;20129;-70
2022/03/05 02:06:22;;;;;;;8.38;3.53;;;;;;;;;;5051879;28;19925;-70
2022/03/05 02:08:49;;;;;;;6.60;3.75;;;;;;;;;;5051582;28;20049;-70
2022/03/05 02:11:16;;;;;;;6.82;2.80;;;;;;;;;;5051724;28;20044;-70
2022/03/05 02:13:42;;;;;;;5.53;3.33;;;;;;;;;;5051865;28;20044;-70
2022/03/05 02:16:09;;;;;;;3.75;2.22;;;;;;;;;;5051736;28;20053;-70
2022/03/05 02:18:35;;;;;;;4.07;2.03;;;;;;;;;;5049554;28;20048;-70
2022/03/05 02:21:02;;;;;;;5.35;2.13;;;;;;;;;;5051909;28;20130;-70
2022/03/05 02:23:28;;;;;;;6.53;1.88;;;;;;;;;;5051385;28;20048;-70
2022/03/05 02:25:59;;;;;;;6.75;2.70;;;;;;;;;;5051560;28;20045;-70
2022/03/05 02:28:26;;;;;;;4.32;1.90;;;;;;;;;;5051618;28;20102;-70
2022/03/05 02:30:53;;;;;;;4.80;2.40;;;;;;;;;;5051707;28;20126;-70
2022/03/05 02:33:20;;;;;;;3.45;1.67;;;;;;;;;;5051288;28;20049;-70
2022/03/05 02:35:46;;;;;;;2.33;1.33;;;;;;;;;;5051633;28;20122;-69
2022/03/05 02:38:14;;;;;;;5.93;2.20;;;;;;;;;;5051261;28;20562;-69
2022/03/05 02:40:41;;;;;;;4.65;2.08;;;;;;;;;;5051197;28;20045;-70
2022/03/05 02:43:08;;;;;;;4.45;2.00;;;;;;;;;;5051620;28;20045;-71
2022/03/05 02:45:35;;;;;;;3.00;1.58;;;;;;;;;;5050306;28;20544;-70
2022/03/05 02:48:02;;;;;;;4.97;1.70;;;;;;;;;;5050253;28;20053;-70
2022/03/05 02:50:29;;;;;;;6.25;3.42;;;;;;;;;;5049776;28;20509;-70
2022/03/05 02:52:56;;;;;;;5.23;1.77;;;;;;;;;;5050996;28;20041;-70
2022/03/05 02:55:22;;;;;;;4.93;1.60;;;;;;;;;;5051194;28;20508;-70
2022/03/05 02:57:48;;;;;;;3.13;1.40;;;;;;;;;;5051434;28;20095;-70
2022/03/05 03:00:15;;;;;;;2.78;1.40;;;;;;;;;;5051367;28;20103;-70
2022/03/05 03:02:45;;;;;;;4.25;1.60;;;;;;;;;;5050983;28;20788;-70
2022/03/05 03:05:12;;;;;;;5.25;1.60;;;;;;;;;;5051090;28;20512;-69
2022/03/05 03:07:39;;;;;;;6.07;1.55;;;;;;;;;;5050133;28;20045;-69
2022/03/05 03:10:06;;;;;;;4.35;1.70;;;;;;;;;;5052021;28;20269;-69
2022/03/05 03:12:33;;;;;;;4.32;2.08;;;;;;;;;;5054792;28;20095;-69
2022/03/05 03:14:59;;;;;;;4.65;1.88;;;;;;;;;;5054920;28;20053;-69
2022/03/05 03:17:26;;;;;;;4.35;1.70;;;;;;;;;;5055068;28;20056;-69
2022/03/05 03:19:52;;;;;;;5.07;1.50;;;;;;;;;;5053083;28;20053;-69
2022/03/05 03:22:19;;;;;;;6.45;1.70;;;;;;;;;;5054438;28;20057;-69
2022/03/05 03:24:45;;;;;;;4.15;1.40;;;;;;;;;;5054504;28;20436;-69
2022/03/05 03:27:12;;;;;;;4.88;1.65;;;;;;;;;;5054842;28;20102;-70
2022/03/05 03:29:38;;;;;;;4.45;1.27;;;;;;;;;;5054791;28;20448;-70
2022/03/05 03:32:05;;;;;;;4.22;1.50;;;;;;;;;;5054681;28;20049;-70
2022/03/05 03:34:31;;;;;;;4.55;1.40;;;;;;;;;;5054728;28;20056;-70
2022/03/05 03:36:58;;;;;;;3.55;1.20;;;;;;;;;;5054211;28;20072;-70
2022/03/05 03:39:24;;;;;;;5.25;1.77;;;;;;;;;;5054595;28;20049;-69
2022/03/05 03:41:50;;;;;;;5.47;1.70;;;;;;;;;;5054223;28;20098;-69
2022/03/05 03:44:17;;;;;;;4.43;1.92;;;;;;;;;;5052921;28;20451;-69
2022/03/05 03:46:44;;;;;;;5.10;1.85;;;;;;;;;;5054175;28;20049;-69
2022/03/05 03:49:10;;;;;;;5.38;1.80;;;;;;;;;;5054213;28;20132;-69
2022/03/05 03:51:37;;;;;;;5.00;1.92;;;;;;;;;;5054319;28;20045;-70
2022/03/05 03:54:03;;;;;;;4.97;1.60;;;;;;;;;;5052661;28;20079;-70
2022/03/05 03:56:29;;;;;;;7.22;1.70;;;;;;;;;;5053871;28;20048;-70
2022/03/05 03:58:56;;;;;;;7.75;1.80;;;;;;;;;;5054021;28;20049;-69
2022/03/05 04:01:22;;;;;;;4.13;1.83;;;;;;;;;;5054182;28;20098;-70
2022/03/05 04:03:49;;;;;;;4.28;1.60;;;;;;;;;;5054156;28;20048;-69
2022/03/05 04:06:15;;;;;;;5.82;1.50;;;;;;;;;;5053755;28;20045;-70
2022/03/05 04:08:42;;;;;;;5.55;1.88;;;;;;;;;;5053740;28;20099;-70
2022/03/05 04:11:09;;;;;;;6.40;2.40;;;;;;;;;;5052809;28;20056;-70
2022/03/05 04:13:36;;;;;;;6.53;2.30;;;;;;;;;;5054064;28;20114;-70
2022/03/05 04:16:02;;;;;;;7.68;2.75;;;;;;;;;;5053941;28;20538;-70
2022/03/05 04:18:29;;;;;;;5.82;2.97;;;;;;;;;;5051826;28;20094;-70
2022/03/05 04:20:55;;;;;;;6.28;2.47;;;;;;;;;;5053870;28;20091;-70
2022/03/05 04:23:22;;;;;;;7.88;3.03;;;;;;;;;;5052844;28;20056;-71
2022/03/05 04:25:48;;;;;;;7.57;3.65;;;;;;;;;;5053375;28;20049;-70
2022/03/05 04:28:15;;;;;;;7.68;3.00;;;;;;;;;;5053903;28;20049;-70
2022/03/05 04:30:42;;;;;;;7.20;2.60;;;;;;;;;;5053351;28;20049;-70
2022/03/05 04:33:08;;;;;;;9.85;3.20;;;;;;;;;;5053273;28;20049;-70
2022/03/05 04:35:35;;;;;;;6.22;3.58;;;;;;;;;;5053243;28;20102;-70
2022/03/05 04:38:01;;;;;;;5.72;2.70;;;;;;;;;;5053289;28;20148;-70
2022/03/05 04:40:28;;;;;;;7.15;2.67;;;;;;;;;;5052987;28;20447;-70
2022/03/05 04:42:54;;;;;;;4.57;2.25;;;;;;;;;;5051994;28;20090;-70
2022/03/05 04:45:21;;;;;;;8.40;2.00;;;;;;;;;;5051873;28;20455;-70
2022/03/05 04:47:47;;;;;;;6.70;2.25;;;;;;;;;;5050908;28;20045;-70
2022/03/05 04:50:14;;;;;;;5.25;2.03;;;;;;;;;;5047353;28;20085;-70
2022/03/05 04:52:40;;;;;;;6.75;1.88;;;;;;;;;;5052754;28;20484;-70
2022/03/05 04:55:07;;;;;;;5.15;2.10;;;;;;;;;;5053146;28;20102;-70
2022/03/05 04:57:34;;;;;;;8.45;2.38;;;;;;;;;;5052926;28;20151;-70
2022/03/05 05:00:00;;;;;;;3.40;1.63;;;;;;;;;;5053096;28;20052;-70
2022/03/05 05:02:27;;;;;;;5.90;2.80;;;;;;;;;;5052839;28;20053;-70
2022/03/05 05:04:53;;;;;;;4.63;2.10;;;;;;;;;;5052694;28;20084;-70
2022/03/05 05:07:20;;;;;;;5.88;2.58;;;;;;;;;;5052804;28;20045;-70
2022/03/05 05:09:46;;;;;;;6.60;2.83;;;;;;;;;;5052798;28;20041;-70
2022/03/05 05:12:13;;;;;;;8.77;2.88;;;;;;;;;;5051509;28;20049;-71
2022/03/05 05:14:40;;;;;;;9.88;3.08;;;;;;;;;;5052814;28;20126;-70
2022/03/05 05:17:07;;;;;;;8.38;4.28;;;;;;;;;;5052866;28;20071;-70
2022/03/05 05:19:33;;;;;;;7.93;4.00;;;;;;;;;;5041411;28;20053;-70
2022/03/05 05:22:01;;;;;;;7.68;3.42;;;;;;;;;;5052173;28;20110;-70
2022/03/05 05:24:29;;;;;;;6.97;3.47;;;;;;;;;;5052418;28;20103;-70
2022/03/05 05:26:56;;;;;;;7.18;3.97;;;;;;;;;;5052551;28;20481;-70
2022/03/05 05:29:22;;;;;;;8.82;4.35;;;;;;;;;;5052500;28;20106;-70
2022/03/05 05:32:05;;;;;;;8.32;4.38;;;;;;;;;;5052658;28;20457;-70
2022/03/05 05:34:32;;;;;;;7.05;4.20;;;;;;;;;;5051369;28;20455;-70
2022/03/05 05:36:58;;;;;;;9.65;4.60;;;;;;;;;;5052166;28;20489;-70
2022/03/05 05:39:25;;;;;;;6.75;4.20;;;;;;;;;;5051899;28;20467;-71
2022/03/05 05:41:51;;;;;;;11.50;4.43;;;;;;;;;;5052278;28;20045;-70
2022/03/05 05:44:18;;;;;;;9.23;4.63;;;;;;;;;;5052253;28;20052;-71
2022/03/05 05:46:44;;;;;;;8.50;5.00;;;;;;;;;;5052200;28;20041;-71
2022/03/05 05:49:11;;;;;;;9.98;4.75;;;;;;;;;;5051902;28;20052;-70
2022/03/05 05:51:38;;;;;;;7.18;4.13;;;;;;;;;;5052003;28;20130;-70
2022/03/05 05:54:04;;;;;;;7.80;3.85;;;;;;;;;;5052404;28;20052;-70
2022/03/05 05:56:30;;;;;;;7.95;4.40;;;;;;;;;;5051893;28;20053;-70
2022/03/05 05:58:57;;;;;;;5.50;3.83;;;;;;;;;;5051957;28;20092;-70
2022/03/05 06:01:24;;;;;;;8.80;4.55;;;;;;;;;;5051772;28;20049;-70
2022/03/05 06:03:50;;;;;;;7.22;4.82;;;;;;;;;;5051582;28;20052;-69
2022/03/05 06:06:17;;;;;;;9.15;4.85;;;;;;;;;;5052181;28;20077;-70
2022/03/05 06:08:43;;;;;;;10.25;4.75;;;;;;;;;;5051781;28;20053;-69
2022/03/05 06:11:10;;;;;;;8.38;4.40;;;;;;;;;;5051889;28;20056;-69
2022/03/05 06:13:37;;;;;;;9.63;4.95;;;;;;;;;;5050553;28;20048;-70
2022/03/05 06:16:03;;;;;;;12.02;4.65;;;;;;;;;;5051532;28;20497;-69
2022/03/05 06:18:30;;;;;;;7.45;4.32;;;;;;;;;;5043966;28;20081;-70
2022/03/05 06:20:56;;;;;;;9.20;4.22;;;;;;;;;;5050959;28;20396;-70
2022/03/05 06:23:23;;;;;;;9.30;4.35;;;;;;;;;;5051968;28;20517;-69
2022/03/05 06:25:51;;;;;;;8.77;4.80;;;;;;;;;;5051408;28;20091;-70
2022/03/05 06:28:18;;;;;;;9.05;4.22;;;;;;;;;;5051708;28;20504;-69
2022/03/05 06:30:44;;;;;;;8.05;3.75;;;;;;;;;;5051246;28;20570;-70
2022/03/05 06:33:11;;;;;;;9.75;4.57;;;;;;;;;;5051697;28;20122;-69
2022/03/05 06:35:37;;;;;;;9.05;4.70;;;;;;;;;;5050151;28;20555;-70
2022/03/05 06:38:04;;;;;;;8.98;4.63;;;;;;;;;;5023497;28;20106;-70
2022/03/05 06:40:30;;;;;;;10.15;4.47;;;;;;;;;;5051451;28;20103;-70
2022/03/05 06:42:57;;;;;;;8.20;4.38;;;;;;;;;;5050058;28;20075;-70
2022/03/05 06:45:23;;;;;;;8.82;5.15;;;;;;;;;;5052752;28;20126;-70
2022/03/05 06:47:50;;;;;;;7.00;4.53;;;;;;;;;;5055208;28;20048;-70
2022/03/05 06:50:16;;;;;;;9.27;5.47;;;;;;;;;;5055175;28;20079;-70
2022/03/05 06:52:43;;;;;;;8.75;4.57;;;;;;;;;;5055494;28;20052;-69
2022/03/05 06:55:13;;;;;;;11.55;5.20;;;;;;;;;;5055144;28;20048;-70
2022/03/05 06:57:41;;;;;;;10.60;5.28;;;;;;;;;;5055065;28;20132;-70
2022/03/05 07:00:08;;;;;;;8.13;4.97;;;;;;;;;;5055237;28;20060;-69
2022/03/05 07:02:35;;;;;;;7.00;4.77;;;;;;;;;;5047013;28;20555;-69
2022/03/05 07:05:02;;;;;;;10.55;5.25;;;;;;;;;;5049211;28;20285;-69
2022/03/05 07:07:31;;;;;;;7.32;4.93;;;;;;;;;;5055186;28;20086;-69
2022/03/05 07:09:58;;;;;;;10.82;5.00;;;;;;;;;;5055048;28;20045;-69
2022/03/05 07:12:25;;;;;;;11.13;5.05;;;;;;;;;;5054984;28;20096;-69
2022/03/05 07:14:58;;;;;;;9.90;5.20;;;;;;;;;;5053881;28;20053;-69
2022/03/05 07:17:24;;;;;;;6.80;4.95;;;;;;;;;;5054678;28;20156;-69
2022/03/05 07:19:51;;;;;;;8.15;5.20;;;;;;;;;;5046044;28;20489;-69
2022/03/05 07:22:18;;;;;;;7.43;5.00;;;;;;;;;;5054575;28;20455;-69
2022/03/05 07:24:44;;;;;;;8.60;4.60;;;;;;;;;;5054556;28;20099;-68
2022/03/05 07:27:10;;;;;;;7.75;4.75;;;;;;;;;;5054764;28;20048;-69
2022/03/05 07:29:37;;;;;;;7.28;4.60;;;;;;;;;;5051662;28;20095;-69
2022/03/05 07:32:04;;;;;;;8.03;4.57;;;;;;;;;;5026817;28;20063;-70
2022/03/05 07:34:31;;;;;;;7.53;4.28;;;;;;;;;;5034431;28;20112;-70
2022/03/05 07:36:57;;;;;;;9.07;4.72;;;;;;;;;;5050552;28;20048;-69
2022/03/05 07:39:24;;;;;;;7.63;4.93;;;;;;;;;;5054008;28;20056;-70
2022/03/05 07:41:51;;;;;;;8.50;4.57;;;;;;;;;;5049124;28;20045;-70
2022/03/05 07:44:17;;;;;;;6.97;4.20;;;;;;;;;;5041364;28;20080;-69
2022/03/05 07:46:44;;;;;;;7.68;4.45;;;;;;;;;;5053830;28;20091;-70
2022/03/05 07:49:10;;;;;;;6.70;4.22;;;;;;;;;;5052628;28;20136;-71
2022/03/05 07:51:38;;;;;;;7.40;5.05;;;;;;;;;;5053438;28;20052;-70
2022/03/05 07:54:04;;;;;;;9.38;4.00;;;;;;;;;;5053408;28;20053;-71
2022/03/05 07:56:31;;;;;;;7.03;4.32;;;;;;;;;;5053096;28;20130;-70
2022/03/05 07:58:57;;;;;;;6.68;4.13;;;;;;;;;;5053442;28;20041;-70
2022/03/05 08:01:24;;;;;;;7.63;4.72;;;;;;;;;;5053386;28;20061;-69
2022/03/05 08:03:51;;;;;;;6.60;4.18;;;;;;;;;;5052195;28;20040;-70
2022/03/05 08:06:18;;;;;;;7.70;4.47;;;;;;;;;;5053498;28;20481;-69
2022/03/05 08:08:44;;;;;;;6.82;4.15;;;;;;;;;;5036473;28;20053;-70
2022/03/05 08:11:11;;;;;;;7.93;3.90;;;;;;;;;;5039650;28;20045;-69
2022/03/05 08:13:38;;;;;;;7.05;4.32;;;;;;;;;;5032837;28;20053;-69
2022/03/05 08:16:04;;;;;;;7.88;3.70;;;;;;;;;;5032861;28;20509;-70
2022/03/05 08:18:31;;;;;;;5.80;3.75;;;;;;;;;;5037402;28;20057;-70
2022/03/05 08:20:57;;;;;;;7.85;4.25;;;;;;;;;;5042060;28;20041;-71
2022/03/05 08:23:24;;;;;;;6.82;4.20;;;;;;;;;;5032183;28;20104;-71
2022/03/05 08:25:50;;;;;;;5.43;4.35;;;;;;;;;;5032214;28;20042;-71
2022/03/05 08:28:18;;;;;;;8.40;4.38;;;;;;;;;;5032716;28;20045;-72
2022/03/05 08:30:44;;;;;;;4.53;3.80;;;;;;;;;;5032136;28;20394;-70
2022/03/05 08:33:11;;;;;;;10.10;4.25;;;;;;;;;;5032167;28;20053;-69
2022/03/05 08:35:37;;;;;;;5.90;4.43;;;;;;;;;;5044155;28;20065;-68
2022/03/05 08:38:04;;;;;;;5.53;4.22;;;;;;;;;;5052419;28;20048;-69
2022/03/05 08:40:30;;;;;;;4.97;4.10;;;;;;;;;;5052541;28;20151;-76
2022/03/05 08:42:57;;;;;;;8.65;4.22;;;;;;;;;;5049076;28;20045;-73
2022/03/05 08:45:27;;;;;;;4.10;3.70;;;;;;;;;;5045764;28;20117;-75
2022/03/05 08:47:54;;;;;;;5.88;4.07;;;;;;;;;;5031996;28;20099;-71
2022/03/05 08:50:21;;;;;;;4.60;3.88;;;;;;;;;;5042082;28;20123;-70
2022/03/05 08:52:47;;;;;;;6.47;3.45;;;;;;;;;;5052254;28;20511;-70
2022/03/05 08:55:16;;;;;;;7.00;3.75;;;;;;;;;;5052680;28;20049;-70
2022/03/05 08:57:43;;;;;;;5.05;3.78;;;;;;;;;;5045815;28;20057;-70
2022/03/05 09:00:10;;;;;;;5.10;3.38;;;;;;;;;;5043412;28;20042;-70
2022/03/05 09:02:37;;;;;;;4.40;3.22;;;;;;;;;;5043053;28;20048;-70
2022/03/05 09:05:04;;;;;;;5.45;3.63;;;;;;;;;;5030805;28;20563;-70
2022/03/05 09:07:30;;;;;;;4.45;3.30;;;;;;;;;;5031234;28;20038;-69
2022/03/05 09:09:57;;;;;;;4.00;3.20;;;;;;;;;;5041540;28;20076;-70
2022/03/05 09:12:23;;;;;;;6.15;3.45;;;;;;;;;;5052771;28;20052;-69
2022/03/05 09:14:50;;;;;;;5.93;3.15;;;;;;;;;;5052776;28;20045;-73
2022/03/05 09:17:16;;;;;;;3.90;3.38;;;;;;;;;;5052318;28;20053;-70
2022/03/05 09:19:43;;;;;;;5.60;3.03;;;;;;;;;;5041456;28;20546;-70
2022/03/05 09:22:11;;;;;;;5.38;2.40;;;;;;;;;;5051113;28;20160;-72
2022/03/05 09:24:37;;;;;;;3.03;2.35;;;;;;;;;;5047088;28;20046;-71
2022/03/05 09:27:04;;;;;;;4.07;2.28;;;;;;;;;;5035624;28;20077;-71
2022/03/05 09:29:31;;;;;;;3.67;2.28;;;;;;;;;;5040516;28;20448;-70
2022/03/05 09:31:57;;;;;;;2.85;1.95;;;;;;;;;;5052071;28;20111;-71
2022/03/05 09:34:24;;;;;;;4.43;1.65;;;;;;;;;;5038971;28;20605;-72
2022/03/05 09:36:50;;;;;;;3.45;1.50;;;;;;;;;;5030733;28;20053;-73
2022/03/05 09:39:17;;;;;;;4.07;1.50;;;;;;;;;;5037653;28;20045;-70
2022/03/05 09:41:43;;;;;;;2.25;1.30;;;;;;;;;;5037437;28;20050;-71
2022/03/05 09:44:10;;;;;;;3.25;1.80;;;;;;;;;;5043717;28;20053;-69
2022/03/05 09:46:36;;;;;;;3.75;1.42;;;;;;;;;;5037603;28;20048;-68
2022/03/05 09:49:04;;;;;;;2.95;1.30;;;;;;;;;;5036522;28;20563;-69
2022/03/05 09:51:31;;;;;;;3.40;1.42;;;;;;;;;;5031677;28;20057;-70
2022/03/05 09:53:57;;;;;;;2.30;1.50;;;;;;;;;;5036529;28;20049;-69
2022/03/05 09:56:24;;;;;;;2.80;1.30;;;;;;;;;;5040505;28;20087;-70
2022/03/05 09:58:51;;;;;;;3.72;1.50;;;;;;;;;;5050516;28;20049;-70
2022/03/05 10:01:18;;;;;;;3.03;1.30;;;;;;;;;;5051272;28;20493;-70
2022/03/05 10:03:48;;;;;;;2.20;1.15;;;;;;;;;;5050098;28;20073;-69
2022/03/05 10:06:16;;;;;;;4.03;1.08;;;;;;;;;;5051332;28;20049;-71
2022/03/05 10:08:43;;;;;;;2.20;1.00;;;;;;;;;;5033480;28;20183;-70
2022/03/05 10:11:11;;;;;;;2.15;1.40;;;;;;;;;;5032665;28;20046;-69
2022/03/05 10:13:39;;;;;;;5.10;1.00;;;;;;;;;;5031394;28;20099;-69
2022/03/05 10:16:07;;;;;;;4.63;1.00;;;;;;;;;;5045219;28;20041;-69
2022/03/05 10:18:35;;;;;;;3.67;1.55;;;;;;;;;;5049261;28;20044;-70
2022/03/05 10:21:03;;;;;;;4.63;1.52;;;;;;;;;;5051293;28;20496;-70
2022/03/05 10:23:32;;;;;;;;;;;;;;;;;;5051688;28;20467;-70
2022/03/05 10:26:01;;;;;;;2.08;0.95;;;;;;;;;;5051751;28;19929;-70
2022/03/05 10:28:28;;;;;;;1.48;1.05;;;;;;;;;;5051349;28;20071;-70
2022/03/05 10:30:58;;;;;;;3.00;1.00;;;;;;;;;;5051634;28;20053;-69
2022/03/05 10:33:36;;;;;;;1.38;1.25;;;;;;;;;;5051316;28;20056;-70
2022/03/05 10:36:04;;;;;;;2.75;1.23;;;;;;;;;;5032550;28;20567;-70
2022/03/05 10:38:47;;;;;;;2.45;1.00;;;;;;;;;;5031139;28;20045;-69
2022/03/05 10:41:17;;;;;;;1.35;1.17;;;;;;;;;;5031303;28;20539;-70
2022/03/05 10:43:45;;;;;;;4.53;1.45;;;;;;;;;;5039577;28;20096;-70
2022/03/05 10:46:11;;;;;;;2.47;1.48;;;;;;;;;;5041794;28;20045;-70
2022/03/05 10:48:40;;;;;;;2.63;1.40;;;;;;;;;;5051411;28;20041;-69
2022/03/05 10:51:12;;;;;;;3.10;1.00;;;;;;;;;;5051155;28;20048;-69
2022/03/05 10:53:43;;;;;;;2.03;1.30;;;;;;;;;;5049425;28;20556;-69
2022/03/05 10:56:42;;;;;;;1.55;1.45;;;;;;;;;;5039825;28;20049;-69
2022/03/05 10:59:09;;;;;;;2.75;1.27;;;;;;;;;;5026257;28;20072;-70
2022/03/05 11:01:40;;;;;;;1.88;1.40;;;;;;;;;;5046672;28;20041;-69
2022/03/05 11:04:07;;;;;;;1.55;1.10;;;;;;;;;;5042669;28;20053;-69
2022/03/05 11:06:36;;;;;;;3.60;1.38;;;;;;;;;;5050407;28;20497;-70
2022/03/05 11:09:03;;;;;;;2.33;1.23;;;;;;;;;;5051144;28;20053;-70
2022/03/05 11:11:30;;;;;;;1.67;1.30;;;;;;;;;;5041642;28;20049;-70
2022/03/05 11:13:56;;;;;;;4.97;1.30;;;;;;;;;;5050884;28;20049;-70
2022/03/05 11:16:24;;;;;;;2.65;1.10;;;;;;;;;;5050748;28;20056;-72
2022/03/05 11:18:51;;;;;;;1.42;1.25;;;;;;;;;;5048180;28;20067;-72
2022/03/05 11:21:17;;;;;;;1.70;1.15;;;;;;;;;;5051059;28;20094;-72
2022/03/05 11:23:44;;;;;;;3.55;1.20;;;;;;;;;;5051374;28;20041;-69
2022/03/05 11:26:11;;;;;;;2.03;0.90;;;;;;;;;;5050916;28;20048;-70
2022/03/05 11:28:38;;;;;;;2.30;1.30;;;;;;;;;;5050761;28;20072;-69
2022/03/05 11:31:06;;;;;;;3.10;1.27;;;;;;;;;;5050811;28;20083;-69
2022/03/05 11:33:38;;;;;;;2.13;1.30;;;;;;;;;;5053925;28;20286;-69
2022/03/05 11:36:21;;;;;;;2.50;0.73;;;;;;;;;;5054682;28;20049;-70
2022/03/05 11:38:48;;;;;;;2.30;1.00;;;;;;;;;;5053263;28;20098;-69
2022/03/05 11:41:20;;;;;;;1.52;0.93;;;;;;;;;;5054765;28;20053;-70
2022/03/05 11:43:47;;;;;;;3.00;1.17;;;;;;;;;;5054400;28;20090;-70
2022/03/05 11:46:24;;;;;;;1.07;0.90;;;;;;;;;;5038740;28;20052;-71
2022/03/05 11:49:00;;;;;;;2.47;1.02;;;;;;;;;;5034333;28;20049;-71
2022/03/05 11:51:26;;;;;;;4.13;1.20;;;;;;;;;;5033890;28;20099;-70
2022/03/05 11:54:04;;;;;;;3.30;1.42;;;;;;;;;;5033565;28;20493;-73
2022/03/05 11:56:31;;;;;;;4.10;1.33;;;;;;;;;;5052030;28;20546;-72
2022/03/05 11:59:17;;;;;;;2.53;1.20;;;;;;;;;;5053871;28;20126;-71
2022/03/05 12:01:50;;;;;;;3.60;1.60;;;;;;;;;;5053582;28;20389;-71
2022/03/05 12:04:28;;;;;;;1.40;0.90;;;;;;;;;;5043244;28;20127;-71
2022/03/05 12:06:55;;;;;;;3.10;1.38;;;;;;;;;;5033707;28;20064;-71
2022/03/05 12:09:39;;;;;;;1.98;0.88;;;;;;;;;;5033473;28;20493;-71
2022/03/05 12:12:07;;;;;;;1.38;0.75;;;;;;;;;;5033549;28;20057;-71
2022/03/05 12:14:52;;;;;;;3.88;1.05;;;;;;;;;;5033103;28;20485;-70
2022/03/05 12:17:19;;;;;;;0.98;0.90;;;;;;;;;;5049067;28;20364;-71
2022/03/05 12:19:46;;;;;;;2.13;0.80;;;;;;;;;;5035734;28;20053;-72
2022/03/05 12:22:13;;;;;;;3.33;0.90;;;;;;;;;;5046940;28;20394;-71
2022/03/05 12:24:40;;;;;;;3.35;0.95;;;;;;;;;;5053867;28;20041;-73
2022/03/05 12:27:12;;;;;;;2.25;0.70;;;;;;;;;;5053284;28;20182;-71
2022/03/05 12:29:45;;;;;;;2.38;1.08;;;;;;;;;;5053660;28;20079;-73
2022/03/05 12:32:13;;;;;;;2.17;0.80;;;;;;;;;;5053707;28;20045;-70
2022/03/05 12:34:39;;;;;;;;;;;;;;;;;;5053926;28;20102;-72
2022/03/05 12:37:06;;;;;;;2.83;1.10;;;;;;;;;;5053188;28;20335;-73
2022/03/05 12:39:32;;;;;;;4.28;1.80;;;;;;;;;;5052992;28;20044;-70
2022/03/05 12:41:59;;;;;;;2.90;0.95;;;;;;;;;;5053134;28;20045;-73
2022/03/05 12:44:32;;;;;;;4.07;0.77;;;;;;;;;;5052881;28;20079;-70
2022/03/05 12:46:59;;;;;;;1.40;0.80;;;;;;;;;;5045706;28;20500;-72
2022/03/05 12:49:25;;;;;;;2.30;0.90;;;;;;;;;;5042487;28;20045;-69
2022/03/05 12:51:52;;;;;;;2.15;0.82;;;;;;;;;;5041609;28;20091;-70
2022/03/05 12:54:18;;;;;;;2.88;0.90;;;;;;;;;;5044287;28;20068;-70
2022/03/05 12:56:45;;;;;;;1.30;0.95;;;;;;;;;;5052713;28;20099;-70
2022/03/05 12:59:13;;;;;;;3.33;1.30;;;;;;;;;;5052753;28;20057;-70
2022/03/05 13:01:40;;;;;;;5.25;1.00;;;;;;;;;;5053004;28;20049;-70
2022/03/05 13:04:06;;;;;;;1.90;1.00;;;;;;;;;;5052636;28;20059;-70
2022/03/05 13:06:33;;;;;;;1.95;1.10;;;;;;;;;;5052394;28;20416;-70
2022/03/05 13:08:59;;;;;;;4.88;1.17;;;;;;;;;;5052679;28;20394;-70
2022/03/05 13:11:49;;;;;;;1.42;0.70;;;;;;;;;;5052836;28;20478;-70
2022/03/05 13:14:19;;;;;;;2.35;0.98;;;;;;;;;;5052508;28;20094;-70
2022/03/05 13:16:48;;;;;;;4.97;1.65;;;;;;;;;;5052425;28;20102;-70
2022/03/05 13:19:15;;;;;;;2.92;1.33;;;;;;;;;;5042619;28;20424;-70
2022/03/05 13:21:45;;;;;;;1.88;0.80;;;;;;;;;;5052230;28;20095;-70
2022/03/05 13:24:13;;;;;;;4.25;1.50;;;;;;;;;;5052624;28;20041;-70
2022/03/05 13:26:43;;;;;;;3.08;1.02;;;;;;;;;;5051489;28;20045;-70
2022/03/05 13:29:09;;;;;;;4.55;1.20;;;;;;;;;;5052419;28;20057;-70
2022/03/05 13:31:36;;;;;;;1.70;0.88;;;;;;;;;;5052473;28;20049;-70
2022/03/05 13:34:03;;;;;;;1.83;0.90;;;;;;;;;;5052105;28;20489;-70
2022/03/05 13:36:40;;;;;;;1.75;1.00;;;;;;;;;;5052428;28;20110;-70
2022/03/05 13:39:08;;;;;;;2.65;0.80;;;;;;;;;;5052238;28;20056;-70
2022/03/05 13:41:39;;;;;;;4.30;1.23;;;;;;;;;;5052033;28;20095;-70
2022/03/05 13:44:16;;;;;;;1.83;0.98;;;;;;;;;;5051949;28;20566;-70
2022/03/05 13:46:43;;;;;;;;;;;;;;;;;;5052764;28;20041;-70
2022/03/05 13:49:09;;;;;;;1.83;1.13;;;;;;;;;;5051888;28;20388;-70
2022/03/05 13:51:36;;;;;;;1.45;0.73;;;;;;;;;;5051895;28;20049;-70
2022/03/05 13:54:04;;;;;;;2.35;0.90;;;;;;;;;;5052017;28;20056;-70
2022/03/05 13:56:48;;;;;;;4.72;1.15;;;;;;;;;;5051090;28;20099;-70
2022/03/05 13:59:18;;;;;;;2.15;0.73;;;;;;;;;;5052117;28;20170;-70
2022/03/05 14:01:48;;;;;;;1.45;0.77;;;;;;;;;;5051626;28;20550;-71
2022/03/05 14:04:18;;;;;;;2.72;0.98;;;;;;;;;;5051980;28;20447;-70
2022/03/05 14:06:45;;;;;;;1.75;0.80;;;;;;;;;;5051979;28;20053;-70
2022/03/05 14:09:22;;;;;;;2.50;1.17;;;;;;;;;;5051896;28;20045;-70
2022/03/05 14:12:00;;;;;;;3.65;2.05;;;;;;;;;;5051929;28;20107;-70
2022/03/05 14:14:37;;;;;;;3.83;2.30;;;;;;;;;;5051624;28;20049;-70
2022/03/05 14:17:04;;;;;;;2.70;1.10;;;;;;;;;;5050378;28;20057;-70
2022/03/05 14:19:31;;;;;;;2.85;1.40;;;;;;;;;;5043575;28;20451;-70
2022/03/05 14:22:07;;;;;;;3.80;1.27;;;;;;;;;;5051433;28;20049;-71
2022/03/05 14:24:34;;;;;;;4.50;1.60;;;;;;;;;;5051513;28;20501;-70
2022/03/05 14:27:08;;;;;;;2.05;0.75;;;;;;;;;;5051744;28;20041;-70
2022/03/05 14:29:34;;;;;;;1.75;0.70;;;;;;;;;;5051409;28;20052;-70
2022/03/05 14:32:01;;;;;;;3.08;0.90;;;;;;;;;;5039321;28;20493;-70
2022/03/05 14:34:27;;;;;;;1.58;1.35;;;;;;;;;;5050035;28;20095;-70
2022/03/05 14:36:53;;;;;;;1.83;0.90;;;;;;;;;;5051851;28;20103;-70
2022/03/05 14:39:26;;;;;;;3.50;0.93;;;;;;;;;;5051327;28;20488;-70
2022/03/05 14:41:53;;;;;;;2.55;0.73;;;;;;;;;;5051536;28;20072;-70
2022/03/05 14:44:19;;;;;;;1.23;0.77;;;;;;;;;;5051488;28;20049;-70
2022/03/05 14:46:46;;;;;;;2.65;1.17;;;;;;;;;;5051560;28;20088;-70